createdAt,value
2022-08-03T00:01:49.413Z,4.18
2022-08-03T00:04:16.044Z,4.35
2022-08-03T00:06:42.945Z,4.05
2022-08-03T00:09:09.683Z,6.30
2022-08-03T00:11:36.689Z,5.35
2022-08-03T00:14:04.651Z,3.95
2022-08-03T00:16:31.278Z,6.43
2022-08-03T00:18:57.992Z,5.88
2022-08-03T00:21:27.871Z,4.00
2022-08-03T00:23:54.502Z,3.08
2022-08-03T00:26:21.429Z,5.32
2022-08-03T00:28:48.629Z,6.15
2022-08-03T00:31:15.410Z,7.05
2022-08-03T00:33:58.221Z,3.35
2022-08-03T00:36:27.873Z,6.18
2022-08-03T00:38:55.058Z,3.97
2022-08-03T00:41:21.958Z,4.70
2022-08-03T00:43:48.639Z,5.35
2022-08-03T00:46:20.613Z,6.30
2022-08-03T00:48:50.158Z,2.97
2022-08-03T00:51:16.849Z,3.10
2022-08-03T00:53:43.621Z,5.03
2022-08-03T00:56:16.854Z,4.05
2022-08-03T00:58:47.106Z,4.55
2022-08-03T01:01:14.989Z,5.80
2022-08-03T01:03:41.652Z,6.38
2022-08-03T01:06:20.012Z,4.80
2022-08-03T01:09:08.459Z,4.07
2022-08-03T01:12:01.003Z,5.85
2022-08-03T01:14:44.306Z,3.47
2022-08-03T01:17:16.847Z,4.25
2022-08-03T01:19:52.851Z,5.43
2022-08-03T01:22:42.404Z,7.00
2022-08-03T01:25:36.437Z,3.33
2022-08-03T01:28:40.837Z,5.63
2022-08-03T01:31:10.374Z,5.28
2022-08-03T01:33:43.624Z,3.08
2022-08-03T01:36:14.416Z,6.00
2022-08-03T01:38:53.908Z,4.82
2022-08-03T01:41:25.073Z,6.50
2022-08-03T01:44:27.213Z,8.25
2022-08-03T01:46:47.479Z,8.90
2022-08-03T01:49:15.245Z,4.90
2022-08-03T01:51:56.646Z,4.25
2022-08-03T01:54:33.205Z,3.72
2022-08-03T01:56:59.846Z,4.30
2022-08-03T01:59:29.511Z,5.20
2022-08-03T02:02:28.812Z,6.20
2022-08-03T02:04:46.958Z,6.05
2022-08-03T02:07:15.295Z,3.65
2022-08-03T02:09:45.094Z,4.88
2022-08-03T02:12:14.085Z,4.25
2022-08-03T02:14:43.451Z,4.47
2022-08-03T02:17:12.370Z,4.47
2022-08-03T02:19:40.640Z,5.88
2022-08-03T02:22:11.980Z,4.82
2022-08-03T02:24:38.955Z,6.07
2022-08-03T02:27:18.823Z,5.28
2022-08-03T02:29:50.006Z,5.05
2022-08-03T02:32:20.437Z,7.18
2022-08-03T02:34:50.736Z,4.65
2022-08-03T02:37:19.831Z,7.15
2022-08-03T02:39:47.787Z,5.35
2022-08-03T02:42:17.236Z,4.75
2022-08-03T02:44:48.578Z,6.32
2022-08-03T02:47:17.135Z,6.30
2022-08-03T02:49:50.405Z,10.13
2022-08-03T02:52:19.840Z,4.72
2022-08-03T02:54:48.704Z,6.55
2022-08-03T02:57:16.455Z,5.80
2022-08-03T02:59:44.545Z,5.45
2022-08-03T03:02:12.429Z,6.10
2022-08-03T03:04:56.211Z,5.70
2022-08-03T03:07:28.859Z,11.13
2022-08-03T03:09:58.432Z,7.80
2022-08-03T03:12:26.440Z,5.65
2022-08-03T03:14:53.181Z,8.02
2022-08-03T03:17:21.504Z,5.93
2022-08-03T03:19:51.063Z,10.20
2022-08-03T03:22:18.935Z,5.93
2022-08-03T03:24:47.866Z,10.30
2022-08-03T03:27:16.771Z,8.43
2022-08-03T03:29:44.466Z,6.78
2022-08-03T03:32:11.143Z,5.22
2022-08-03T03:34:38.142Z,7.72
2022-08-03T03:37:05.270Z,9.90
2022-08-03T03:39:32.055Z,7.72
2022-08-03T03:42:00.777Z,6.45
2022-08-03T03:44:31.604Z,7.63
2022-08-03T03:46:58.631Z,6.60
2022-08-03T03:49:26.701Z,5.05
2022-08-03T03:51:54.884Z,7.65
2022-08-03T03:54:21.780Z,8.10
2022-08-03T03:56:52.312Z,8.43
2022-08-03T03:59:18.993Z,9.48
2022-08-03T04:01:45.851Z,7.47
2022-08-03T04:04:31.110Z,5.63
2022-08-03T04:07:16.517Z,10.37
2022-08-03T04:10:14.457Z,7.45
2022-08-03T04:12:50.312Z,8.05
2022-08-03T04:17:47.783Z,13.52
2022-08-03T04:20:15.770Z,7.07
2022-08-03T04:22:42.702Z,8.38
2022-08-03T04:25:14.187Z,8.40
2022-08-03T04:27:42.117Z,7.82
2022-08-03T04:30:09.609Z,9.90
2022-08-03T04:32:41.885Z,9.43
2022-08-03T04:35:12.215Z,8.23
2022-08-03T04:37:43.191Z,9.75
2022-08-03T04:40:14.761Z,11.35
2022-08-03T04:42:43.338Z,8.85
2022-08-03T04:45:13.117Z,8.85
2022-08-03T04:47:40.285Z,8.63
2022-08-03T04:50:12.473Z,8.73
2022-08-03T04:52:40.652Z,12.88
2022-08-03T04:55:07.710Z,10.43
2022-08-03T04:57:34.339Z,11.73
2022-08-03T05:00:03.573Z,7.38
2022-08-03T05:02:31.923Z,10.75
2022-08-03T05:04:59.201Z,8.95
2022-08-03T05:07:25.831Z,8.52
2022-08-03T05:10:01.580Z,10.13
2022-08-03T05:12:32.926Z,9.25
2022-08-03T05:15:00.323Z,8.68
2022-08-03T05:17:27.323Z,12.75
2022-08-03T05:19:54.877Z,7.95
2022-08-03T05:22:22.748Z,8.88
2022-08-03T05:24:49.694Z,9.27
2022-08-03T05:27:22.282Z,7.38
2022-08-03T05:29:50.711Z,8.40
2022-08-03T05:32:18.671Z,8.75
2022-08-03T05:34:45.675Z,9.10
2022-08-03T05:37:12.424Z,15.68
2022-08-03T05:39:39.060Z,6.93
2022-08-03T05:42:05.825Z,9.45
2022-08-03T05:44:32.459Z,9.43
2022-08-03T05:46:59.531Z,10.10
2022-08-03T05:49:26.245Z,11.38
2022-08-03T05:52:00.021Z,10.00
2022-08-03T05:54:56.031Z,10.27
2022-08-03T05:57:22.332Z,8.30
2022-08-03T05:59:57.754Z,9.25
2022-08-03T06:02:28.626Z,7.65
2022-08-03T06:04:55.247Z,12.88
2022-08-03T06:07:22.073Z,8.45
2022-08-03T06:10:37.209Z,7.72
2022-08-03T06:12:36.235Z,7.75
2022-08-03T06:15:04.909Z,12.82
2022-08-03T06:17:37.364Z,7.32
2022-08-03T06:20:05.864Z,12.20
2022-08-03T06:22:32.770Z,8.30
2022-08-03T06:25:03.683Z,6.88
2022-08-03T06:27:36.595Z,10.65
2022-08-03T06:30:05.731Z,8.20
2022-08-03T06:32:32.400Z,10.43
2022-08-03T06:34:59.405Z,6.07
2022-08-03T06:37:27.131Z,9.52
2022-08-03T06:39:54.219Z,9.73
2022-08-03T06:42:20.906Z,7.57
2022-08-03T06:44:49.556Z,9.80
2022-08-03T06:47:16.237Z,10.13
2022-08-03T06:49:42.956Z,8.13
2022-08-03T06:52:09.580Z,11.02
2022-08-03T06:54:36.425Z,11.68
2022-08-03T06:57:03.700Z,9.73
2022-08-03T07:00:07.338Z,9.27
2022-08-03T07:02:19.549Z,8.13
2022-08-03T07:04:47.949Z,8.80
2022-08-03T07:07:14.563Z,9.02
2022-08-03T07:09:41.730Z,5.68
2022-08-03T07:12:08.668Z,7.95
2022-08-03T07:14:35.220Z,6.68
2022-08-03T07:17:01.847Z,8.60
2022-08-03T07:19:37.975Z,8.88
2022-08-03T07:22:04.733Z,5.72
2022-08-03T07:24:31.337Z,9.23
2022-08-03T07:26:57.991Z,5.63
2022-08-03T07:29:25.037Z,8.60
2022-08-03T07:31:51.732Z,7.63
2022-08-03T07:34:18.625Z,5.07
2022-08-03T07:36:45.334Z,4.93
2022-08-03T07:39:16.656Z,8.38
2022-08-03T07:41:44.699Z,3.75
2022-08-03T07:44:11.311Z,7.07
2022-08-03T07:46:38.000Z,7.80
2022-08-03T07:49:05.262Z,6.13
2022-08-03T07:51:31.929Z,3.95
2022-08-03T07:53:59.094Z,3.88
2022-08-03T07:56:25.841Z,7.22
2022-08-03T07:58:53.235Z,6.47
2022-08-03T08:01:20.071Z,10.00
2022-08-03T08:03:53.269Z,5.22
2022-08-03T08:06:21.193Z,4.75
2022-08-03T08:08:48.585Z,7.93
2022-08-03T08:11:15.334Z,5.97
2022-08-03T08:13:42.083Z,9.10
2022-08-03T08:16:08.773Z,7.82
2022-08-03T08:18:35.372Z,4.68
2022-08-03T08:21:03.398Z,7.22
2022-08-03T08:23:42.700Z,6.45
2022-08-03T08:26:11.251Z,5.68
2022-08-03T08:28:37.884Z,4.13
2022-08-03T08:31:04.556Z,3.55
2022-08-03T08:34:02.636Z,3.20
2022-08-03T08:36:18.148Z,3.92
2022-08-03T08:38:45.302Z,6.22
2022-08-03T08:41:13.844Z,2.95
2022-08-03T08:43:41.891Z,5.95
2022-08-03T08:46:12.546Z,4.70
2022-08-03T08:48:46.389Z,7.70
2022-08-03T08:51:13.854Z,4.05
2022-08-03T08:53:46.690Z,4.28
2022-08-03T08:56:17.674Z,7.40
2022-08-03T08:58:51.263Z,10.75
2022-08-03T09:01:19.969Z,4.00
2022-08-03T09:03:47.267Z,5.25
2022-08-03T09:06:15.027Z,8.52
2022-08-03T09:08:41.943Z,7.40
2022-08-03T09:11:08.816Z,8.43
2022-08-03T09:13:38.910Z,4.35
2022-08-03T09:16:15.615Z,5.68
2022-08-03T09:18:44.574Z,6.75
2022-08-03T09:21:33.962Z,4.00
2022-08-03T09:24:06.212Z,3.72
2022-08-03T09:26:36.104Z,7.32
2022-08-03T09:29:15.212Z,4.35
2022-08-03T09:31:46.838Z,7.25
2022-08-03T09:34:17.866Z,7.30
2022-08-03T09:36:46.192Z,3.05
2022-08-03T09:39:15.699Z,11.30
2022-08-03T09:41:45.100Z,20.00
2022-08-03T09:44:24.079Z,11.13
2022-08-03T09:46:56.510Z,5.40
2022-08-03T09:49:24.251Z,6.45
2022-08-03T09:52:38.346Z,6.20
2022-08-03T09:54:38.936Z,8.60
2022-08-03T09:57:05.528Z,5.18
2022-08-03T09:59:33.601Z,8.43
2022-08-03T10:02:00.864Z,3.60
2022-08-03T10:04:27.921Z,5.55
2022-08-03T10:07:09.458Z,4.70
2022-08-03T10:09:37.506Z,3.72
2022-08-03T10:12:09.285Z,4.65
2022-08-03T10:14:38.890Z,5.63
2022-08-03T10:17:06.797Z,5.07
2022-08-03T10:19:33.888Z,3.88
2022-08-03T10:22:14.283Z,6.28
2022-08-03T10:24:49.856Z,3.35
2022-08-03T10:27:18.710Z,8.63
2022-08-03T10:29:48.952Z,5.13
2022-08-03T10:32:39.327Z,4.78
2022-08-03T10:35:19.942Z,3.72
2022-08-03T10:37:57.135Z,2.80
2022-08-03T10:40:46.828Z,4.82
2022-08-03T10:43:18.629Z,1.45
2022-08-03T10:45:46.603Z,5.22
2022-08-03T10:48:14.344Z,5.65
2022-08-03T10:50:43.384Z,2.92
2022-08-03T10:53:10.303Z,3.95
2022-08-03T10:55:58.994Z,2.53
2022-08-03T10:58:38.034Z,3.42
2022-08-03T11:01:59.902Z,5.10
2022-08-03T11:04:29.531Z,3.30
2022-08-03T11:07:15.582Z,5.07
2022-08-03T11:09:43.932Z,2.67
2022-08-03T11:12:29.904Z,4.00
2022-08-03T11:15:07.545Z,2.88
2022-08-03T11:17:46.270Z,1.92
2022-08-03T11:20:52.145Z,3.28
2022-08-03T11:24:02.869Z,3.83
2022-08-03T11:26:26.025Z,4.50
2022-08-03T11:28:52.647Z,2.45
2022-08-03T11:31:39.582Z,3.70
2022-08-03T11:34:10.988Z,1.98
2022-08-03T11:37:15.526Z,2.70
2022-08-03T11:39:45.404Z,4.32
2022-08-03T11:42:24.332Z,2.95
2022-08-03T11:44:56.140Z,3.60
2022-08-03T11:47:24.340Z,6.82
2022-08-03T11:49:54.002Z,3.30
2022-08-03T11:52:27.555Z,2.17
2022-08-03T11:54:57.013Z,2.38
2022-08-03T11:59:01.719Z,4.13
2022-08-03T12:00:32.574Z,3.65
2022-08-03T12:03:12.015Z,3.58
2022-08-03T12:05:51.394Z,7.63
2022-08-03T12:08:28.142Z,6.45
2022-08-03T12:10:57.025Z,2.60
2022-08-03T12:14:45.122Z,5.43
2022-08-03T12:16:18.989Z,2.03
2022-08-03T12:18:46.387Z,4.75
2022-08-03T12:21:13.133Z,3.40
2022-08-03T12:23:39.843Z,3.45
2022-08-03T12:26:09.745Z,5.18
2022-08-03T12:28:38.399Z,2.95
2022-08-03T12:31:11.802Z,3.42
2022-08-03T12:34:04.967Z,2.33
2022-08-03T12:36:34.366Z,5.32
2022-08-03T12:39:04.042Z,2.40
2022-08-03T12:41:39.233Z,5.53
2022-08-03T12:46:36.889Z,7.05
2022-08-03T12:49:18.758Z,3.35
2022-08-03T12:51:45.512Z,7.25
2022-08-03T12:54:24.404Z,3.08
2022-08-03T12:57:05.596Z,10.13
2022-08-03T12:59:40.441Z,7.25
2022-08-03T13:02:28.696Z,1.83
2022-08-03T13:04:55.944Z,1.48
2022-08-03T13:07:23.365Z,4.07
2022-08-03T13:09:56.286Z,1.20
2022-08-03T13:12:25.181Z,3.58
2022-08-03T13:14:54.861Z,5.20
2022-08-03T13:17:21.813Z,2.08
2022-08-03T13:19:49.760Z,1.88
2022-08-03T13:22:21.325Z,3.47
2022-08-03T13:24:50.387Z,1.80
2022-08-03T13:28:01.233Z,3.25
2022-08-03T13:30:04.944Z,2.33
2022-08-03T13:32:31.551Z,2.47
2022-08-03T13:34:58.229Z,3.58
2022-08-03T13:37:25.637Z,2.70
2022-08-03T13:39:58.727Z,3.47
2022-08-03T13:42:31.878Z,2.05
2022-08-03T13:44:59.757Z,6.07
2022-08-03T13:47:27.441Z,1.90
2022-08-03T13:50:01.485Z,3.03
2022-08-03T13:52:34.107Z,4.38
2022-08-03T13:55:01.973Z,5.63
2022-08-03T13:58:02.613Z,2.88
2022-08-03T14:00:27.024Z,3.58
2022-08-03T14:03:16.083Z,1.60
2022-08-03T14:05:43.997Z,3.50
2022-08-03T14:08:11.719Z,2.13
2022-08-03T14:10:41.980Z,4.82
2022-08-03T14:13:17.388Z,2.55
2022-08-03T14:15:50.958Z,2.78
2022-08-03T14:18:28.248Z,2.80
2022-08-03T14:21:00.795Z,4.00
2022-08-03T14:23:32.387Z,4.63
2022-08-03T14:25:59.656Z,5.38
2022-08-03T14:28:26.270Z,2.58
2022-08-03T14:30:54.543Z,2.90
2022-08-03T14:33:21.539Z,2.90
2022-08-03T14:35:48.909Z,1.33
2022-08-03T14:38:15.946Z,5.85
2022-08-03T14:40:43.374Z,3.33
2022-08-03T14:43:10.007Z,4.30
2022-08-03T14:45:36.700Z,2.45
2022-08-03T14:50:29.293Z,3.40
2022-08-03T14:50:52.849Z,2.22
2022-08-03T14:53:20.064Z,1.88
2022-08-03T14:55:50.354Z,4.28
2022-08-03T14:58:20.079Z,1.25
2022-08-03T15:00:48.079Z,1.35
2022-08-03T15:03:15.890Z,2.65
2022-08-03T15:05:43.828Z,2.50
2022-08-03T15:08:10.418Z,2.08
2022-08-03T15:10:44.180Z,3.67
2022-08-03T15:15:42.009Z,2.58
2022-08-03T15:18:08.959Z,3.67
2022-08-03T15:20:44.299Z,6.05
2022-08-03T15:23:12.907Z,4.15
2022-08-03T15:26:32.314Z,1.67
2022-08-03T15:28:26.018Z,2.78
2022-08-03T15:30:53.142Z,1.52
2022-08-03T15:33:20.106Z,3.80
2022-08-03T15:35:47.519Z,2.53
2022-08-03T15:38:14.257Z,4.10
2022-08-03T15:40:40.994Z,3.60
2022-08-03T15:43:08.089Z,3.47
2022-08-03T15:45:36.076Z,1.58
2022-08-03T15:48:05.022Z,3.13
2022-08-03T15:50:31.948Z,3.90
2022-08-03T15:52:58.578Z,1.50
2022-08-03T15:55:25.348Z,2.70
2022-08-03T15:59:03.267Z,5.03
2022-08-03T16:00:39.532Z,3.20
2022-08-03T16:03:06.327Z,1.73
2022-08-03T16:05:33.014Z,1.92
2022-08-03T16:08:04.314Z,3.00
2022-08-03T16:10:32.622Z,1.58
2022-08-03T16:13:00.204Z,0.85
2022-08-03T16:15:27.350Z,3.28
2022-08-03T16:17:54.035Z,3.42
2022-08-03T16:20:29.269Z,2.67
2022-08-03T16:23:10.574Z,2.30
2022-08-03T16:25:44.309Z,3.60
2022-08-03T16:28:17.306Z,4.35
2022-08-03T16:30:45.796Z,1.80
2022-08-03T16:33:16.722Z,2.55
2022-08-03T16:35:46.127Z,2.17
2022-08-03T16:38:18.590Z,2.35
2022-08-03T16:40:47.066Z,2.30
2022-08-03T16:43:18.267Z,1.77
2022-08-03T16:45:46.978Z,1.13
2022-08-03T16:48:15.254Z,3.38
2022-08-03T16:50:42.111Z,2.20
2022-08-03T16:53:15.584Z,3.08
2022-08-03T16:58:41.322Z,3.03
2022-08-03T17:01:22.055Z,1.27
2022-08-03T17:04:02.283Z,3.42
2022-08-03T17:06:35.354Z,3.72
2022-08-03T17:09:13.351Z,1.63
2022-08-03T17:11:46.925Z,3.05
2022-08-03T17:14:21.803Z,2.58
2022-08-03T17:16:52.517Z,4.93
2022-08-03T17:19:24.959Z,4.47
2022-08-03T17:21:59.970Z,3.22
2022-08-03T17:24:41.330Z,2.35
2022-08-03T17:28:41.795Z,1.55
2022-08-03T17:30:17.461Z,2.47
2022-08-03T17:32:57.910Z,1.80
2022-08-03T17:35:34.667Z,3.05
2022-08-03T17:38:06.633Z,1.88
2022-08-03T17:40:35.820Z,1.20
2022-08-03T17:43:44.509Z,3.03
2022-08-03T17:45:52.921Z,5.15
2022-08-03T17:48:25.104Z,1.10
2022-08-03T17:50:59.461Z,2.15
2022-08-03T17:53:34.094Z,3.13
2022-08-03T17:56:42.696Z,4.25
2022-08-03T18:02:19.947Z,3.60
2022-08-03T18:05:16.588Z,2.55
2022-08-03T18:08:01.545Z,2.65
2022-08-03T18:10:34.727Z,2.78
2022-08-03T18:13:14.842Z,4.10
2022-08-03T18:15:54.303Z,2.95
2022-08-03T18:18:32.722Z,3.67
2022-08-03T18:21:06.524Z,3.85
2022-08-03T18:23:37.732Z,3.60
2022-08-03T18:26:12.398Z,4.68
2022-08-03T18:28:39.235Z,2.72
2022-08-03T18:31:07.530Z,6.32
2022-08-03T18:34:17.078Z,3.22
2022-08-03T18:36:30.127Z,3.17
2022-08-03T18:39:02.393Z,4.30
2022-08-03T18:41:32.148Z,6.28
2022-08-03T18:44:09.067Z,3.17
2022-08-03T18:47:07.442Z,6.35
2022-08-03T18:49:52.079Z,6.40
2022-08-03T18:52:33.744Z,3.40
2022-08-03T18:55:33.462Z,4.70
2022-08-03T18:58:08.431Z,4.82
2022-08-03T19:00:54.718Z,7.13
2022-08-03T19:03:25.477Z,4.90
2022-08-03T19:06:20.314Z,2.95
2022-08-03T19:08:55.680Z,4.80
2022-08-03T19:13:59.345Z,5.82
2022-08-03T19:16:35.699Z,5.55
2022-08-03T19:21:59.431Z,2.95
2022-08-03T19:24:26.856Z,3.25
2022-08-03T19:26:55.945Z,1.88
2022-08-03T19:29:25.055Z,2.72
2022-08-03T19:32:15.081Z,4.25
2022-08-03T19:34:45.988Z,8.10
2022-08-03T19:37:15.338Z,4.30
2022-08-03T19:39:43.595Z,4.40
2022-08-03T19:45:14.375Z,3.45
2022-08-03T19:48:10.128Z,3.85
2022-08-03T19:50:37.884Z,6.70
2022-08-03T19:53:12.894Z,8.57
2022-08-03T19:55:46.436Z,4.47
2022-08-03T19:58:17.744Z,3.90
2022-08-03T20:00:55.620Z,5.07
2022-08-03T20:03:24.855Z,2.65
2022-08-03T20:05:54.148Z,3.88
2022-08-03T20:08:22.187Z,6.13
2022-08-03T20:10:49.587Z,3.35
2022-08-03T20:16:05.943Z,5.28
2022-08-03T20:21:25.321Z,4.70
2022-08-03T20:24:02.007Z,3.78
2022-08-03T20:26:32.057Z,2.80
2022-08-03T20:29:10.000Z,4.22
2022-08-03T20:31:39.527Z,3.80
2022-08-03T20:34:07.052Z,5.07
2022-08-03T20:36:35.772Z,4.50
2022-08-03T20:39:07.674Z,7.57
2022-08-03T20:41:36.144Z,3.75
2022-08-03T20:44:04.403Z,5.32
2022-08-03T20:46:46.505Z,4.03
2022-08-03T20:49:23.422Z,4.53
2022-08-03T20:51:53.179Z,1.33
2022-08-03T20:54:29.460Z,7.07
2022-08-03T20:57:04.439Z,3.85
2022-08-03T20:59:50.368Z,5.15
2022-08-03T21:02:28.794Z,7.13
2022-08-03T21:04:59.407Z,5.20
2022-08-03T21:07:45.641Z,4.47
2022-08-03T21:10:21.869Z,7.25
2022-08-03T21:13:01.993Z,3.85
2022-08-03T21:13:02.803Z,4.00
2022-08-03T21:13:03.679Z,3.08
2022-08-03T21:13:03.878Z,6.68
2022-08-03T21:13:16.195Z,3.13
2022-08-03T21:19:37.290Z,6.45
2022-08-03T21:22:22.564Z,10.23
2022-08-03T21:24:55.776Z,6.05
2022-08-03T21:27:24.567Z,5.70
2022-08-03T21:29:53.308Z,5.07
2022-08-03T21:32:32.567Z,6.00
2022-08-03T21:35:01.318Z,6.53
2022-08-03T21:37:31.951Z,5.70
2022-08-03T21:39:58.601Z,3.53
2022-08-03T21:42:25.400Z,4.05
2022-08-03T21:44:52.997Z,5.70
2022-08-03T21:47:22.714Z,5.63
2022-08-03T21:50:08.846Z,7.10
2022-08-03T21:52:43.309Z,6.15
2022-08-03T21:55:18.490Z,6.60
2022-08-03T21:57:53.400Z,4.68
2022-08-03T22:00:23.064Z,5.60
2022-08-03T22:02:56.077Z,6.75
2022-08-03T22:05:42.946Z,7.05
2022-08-03T22:08:13.304Z,4.70
2022-08-03T22:10:43.489Z,5.55
2022-08-03T22:14:17.567Z,5.60
2022-08-03T22:16:45.024Z,7.13
2022-08-03T22:19:11.581Z,6.78
2022-08-03T22:21:39.780Z,6.28
2022-08-03T22:24:07.354Z,5.53
2022-08-03T22:26:35.970Z,5.15
2022-08-03T22:29:06.913Z,5.50
2022-08-03T22:31:58.776Z,7.60
2022-08-03T22:34:26.732Z,7.03
2022-08-03T22:36:57.247Z,7.88
2022-08-03T22:39:28.835Z,11.52
2022-08-03T22:41:58.898Z,7.15
2022-08-03T22:44:27.236Z,4.07
2022-08-03T22:46:55.040Z,5.22
2022-08-03T22:49:22.289Z,6.47
2022-08-03T22:51:51.643Z,10.60
2022-08-03T22:54:18.582Z,6.25
2022-08-03T22:56:46.770Z,8.50
2022-08-03T22:59:40.976Z,8.70
2022-08-03T23:02:19.957Z,8.52
2022-08-03T23:04:56.714Z,8.23
2022-08-03T23:07:34.939Z,9.32
2022-08-03T23:10:04.701Z,7.63
2022-08-03T23:12:37.215Z,6.40
2022-08-03T23:15:07.291Z,7.28
2022-08-03T23:17:58.296Z,5.95
2022-08-03T23:24:39.971Z,9.18
2022-08-03T23:27:08.854Z,4.78
2022-08-03T23:29:37.308Z,5.53
2022-08-03T23:32:05.645Z,6.10
2022-08-03T23:34:52.639Z,10.10
2022-08-03T23:37:20.389Z,3.30
2022-08-03T23:43:54.492Z,9.30
2022-08-03T23:46:25.884Z,7.50
2022-08-03T23:48:53.869Z,6.15
2022-08-03T23:51:35.549Z,5.72
2022-08-03T23:54:47.339Z,6.68
2022-08-03T23:57:38.886Z,7.32
